Time;durP1;ratioP1;P1;durP2;ratioP2;P2;SDS_P1;SDS_P2;PMS_P1;PMS_P2;Temp;Humidity;BMP_temperature;BMP_pressure;BME280_temperature;BME280_humidity;BME280_pressure;Samples;Min_cycle;Max_cycle;Signal;HPM_P1;HPM_P2
2023/01/26 00:00:27;;;;;;;9.90;5.40;;;;;;;0.90;61.47;95385.38;5065517;28;20029;-76
2023/01/26 00:02:52;;;;;;;8.85;5.55;;;;;;;0.89;61.78;95400.84;5063220;28;20024;-76
2023/01/26 00:05:17;;;;;;;9.10;5.60;;;;;;;0.91;61.85;95403.19;5068525;28;20437;-79
2023/01/26 00:07:44;;;;;;;9.18;5.00;;;;;;;0.95;61.79;95399.41;5065317;28;20091;-77
2023/01/26 00:10:10;;;;;;;7.57;5.28;;;;;;;0.90;61.51;95385.38;5064628;28;20025;-76
2023/01/26 00:12:36;;;;;;;8.90;4.95;;;;;;;0.94;61.55;95394.34;5065301;28;20075;-77
2023/01/26 00:15:01;;;;;;;9.65;5.05;;;;;;;0.86;61.45;95398.06;5064165;28;20400;-76
2023/01/26 00:17:27;;;;;;;10.57;4.60;;;;;;;0.87;61.61;95402.38;5063480;28;20086;-76
2023/01/26 00:19:54;;;;;;;8.07;4.68;;;;;;;0.83;61.32;95415.84;5064351;28;20029;-78
2023/01/26 00:22:20;;;;;;;8.15;5.40;;;;;;;0.78;61.36;95406.09;5064616;28;20456;-76
2023/01/26 00:24:45;;;;;;;8.68;5.03;;;;;;;0.80;61.43;95413.84;5064612;28;20028;-76
2023/01/26 00:27:11;;;;;;;6.60;4.70;;;;;;;0.83;61.66;95405.00;5064418;28;20029;-76
2023/01/26 00:29:36;;;;;;;8.20;5.07;;;;;;;0.85;61.65;95396.50;5064923;28;20029;-76
2023/01/26 00:32:01;;;;;;;9.23;5.75;;;;;;;0.92;61.41;95393.91;5062451;28;20469;-75
2023/01/26 00:34:27;;;;;;;8.52;4.40;;;;;;;0.86;61.17;95385.34;5065057;28;20058;-76
2023/01/26 00:36:52;;;;;;;7.55;4.82;;;;;;;0.83;60.96;95377.94;5064013;28;20032;-77
2023/01/26 00:39:17;;;;;;;6.82;4.47;;;;;;;0.79;61.21;95374.38;5064580;28;20025;-78
2023/01/26 00:44:26;;;;;;;6.53;4.43;;;;;;;0.75;61.46;95374.34;5064400;28;20414;-77
2023/01/26 00:46:52;;;;;;;8.77;5.30;;;;;;;0.76;61.62;95375.91;5064651;28;20064;-78
2023/01/26 00:49:17;;;;;;;7.85;5.15;;;;;;;0.75;61.34;95363.53;5063405;28;20028;-78
2023/01/26 00:51:43;;;;;;;8.50;5.03;;;;;;;0.75;61.34;95358.13;5064687;28;20067;-78
2023/01/26 00:54:08;;;;;;;11.43;5.53;;;;;;;0.76;61.09;95361.59;5063606;28;20501;-77
2023/01/26 00:56:33;;;;;;;7.55;5.15;;;;;;;0.68;61.08;95366.09;5064662;28;20060;-76
2023/01/26 00:58:59;;;;;;;9.27;4.93;;;;;;;0.70;60.99;95361.13;5063933;28;20100;-78
2023/01/26 01:01:24;;;;;;;8.05;5.15;;;;;;;0.74;61.00;95353.81;5069347;28;20025;-77
2023/01/26 01:03:51;;;;;;;9.23;5.13;;;;;;;0.72;61.08;95347.22;5064376;28;20563;-77
2023/01/26 01:06:16;;;;;;;8.50;5.03;;;;;;;0.63;61.27;95343.97;5064163;28;20548;-77
2023/01/26 01:08:42;;;;;;;7.78;5.57;;;;;;;0.63;61.15;95350.19;5046719;28;20028;-77
2023/01/26 01:11:09;;;;;;;8.60;5.40;;;;;;;0.61;61.11;95344.34;5065657;28;20101;-78
2023/01/26 01:13:34;;;;;;;8.82;5.22;;;;;;;0.63;61.24;95343.97;5067879;28;20483;-77
2023/01/26 01:16:04;;;;;;;8.32;5.88;;;;;;;0.53;61.02;95354.28;5064469;28;20035;-78
2023/01/26 01:18:29;;;;;;;8.82;4.68;;;;;;;0.35;61.09;95347.03;5065213;28;20419;-76
2023/01/26 01:20:54;;;;;;;8.20;5.20;;;;;;;0.34;61.67;95345.44;5064739;28;20021;-77
2023/01/26 01:23:20;;;;;;;7.10;5.28;;;;;;;0.41;61.32;95342.88;5064578;28;20033;-75
2023/01/26 01:25:45;;;;;;;12.68;5.75;;;;;;;0.35;61.40;95342.41;5064850;28;20021;-76
2023/01/26 01:28:11;;;;;;;10.50;5.32;;;;;;;0.36;60.94;95340.47;5064498;28;20451;-77
2023/01/26 01:30:37;;;;;;;7.25;4.65;;;;;;;0.37;61.21;95345.50;5065156;28;20032;-78
2023/01/26 01:33:02;;;;;;;8.23;4.38;;;;;;;0.38;60.87;95322.72;5063079;28;20132;-78
2023/01/26 01:35:28;;;;;;;7.82;4.78;;;;;;;0.47;60.79;95325.19;5068399;28;20104;-77
2023/01/26 01:37:53;;;;;;;7.85;4.57;;;;;;;0.55;60.30;95326.84;5067645;28;20024;-77
2023/01/26 01:40:19;;;;;;;8.05;4.78;;;;;;;0.59;60.29;95338.53;5067641;28;20031;-76
2023/01/26 01:42:48;;;;;;;7.45;4.32;;;;;;;0.49;60.37;95334.50;5066321;28;20032;-77
2023/01/26 01:45:41;;;;;;;8.60;4.72;;;;;;;0.47;60.41;95330.59;5065681;28;20021;-76
2023/01/26 01:48:17;;;;;;;8.07;4.53;;;;;;;0.47;60.34;95336.00;5067373;28;20093;-79
2023/01/26 01:50:43;;;;;;;7.35;4.40;;;;;;;0.37;60.45;95331.97;5065725;28;20024;-77
2023/01/26 01:53:12;;;;;;;6.75;4.18;;;;;;;0.42;60.46;95330.91;5065819;28;20033;-76
2023/01/26 01:55:38;;;;;;;7.47;4.53;;;;;;;0.35;60.41;95334.28;5068393;28;20475;-77
2023/01/26 01:58:04;;;;;;;6.93;4.10;;;;;;;0.37;60.28;95325.81;5068922;28;20466;-76
2023/01/26 02:00:29;;;;;;;9.00;5.68;;;;;;;0.20;60.32;95322.44;5066632;28;20120;-77
2023/01/26 02:03:10;;;;;;;7.88;4.90;;;;;;;0.33;60.48;95330.34;5066725;28;20032;-77
2023/01/26 02:05:41;;;;;;;7.65;4.25;;;;;;;0.36;59.86;95324.25;5067520;28;20032;-76
2023/01/26 02:08:08;;;;;;;6.65;3.65;;;;;;;0.32;59.94;95321.47;5066614;28;20089;-76
2023/01/26 02:10:34;;;;;;;9.30;4.70;;;;;;;0.32;59.75;95326.88;5066125;28;20081;-78
2023/01/26 02:13:00;;;;;;;8.00;4.63;;;;;;;0.20;59.87;95308.91;5066851;28;20567;-77
2023/01/26 02:15:26;;;;;;;5.97;3.90;;;;;;;0.33;60.00;95306.03;5065483;28;20032;-77
2023/01/26 02:17:52;;;;;;;6.57;4.20;;;;;;;0.36;60.07;95302.59;5065464;28;20068;-77
2023/01/26 02:20:44;;;;;;;6.15;3.88;;;;;;;0.24;60.00;95293.53;5066239;28;20037;-78
2023/01/26 02:23:28;;;;;;;5.82;3.97;;;;;;;0.18;60.42;95286.09;5065266;28;20032;-78
2023/01/26 02:25:54;;;;;;;6.28;4.25;;;;;;;0.23;60.54;95272.25;5066505;28;20036;-78
2023/01/26 02:28:24;;;;;;;8.65;4.97;;;;;;;0.32;60.33;95267.38;5066421;28;20021;-77
2023/01/26 02:30:49;;;;;;;5.60;3.80;;;;;;;0.43;60.07;95279.16;5067341;28;20124;-76
2023/01/26 02:33:19;;;;;;;6.72;4.55;;;;;;;0.50;59.90;95270.34;5064809;28;20104;-77
2023/01/26 02:35:45;;;;;;;5.95;3.88;;;;;;;0.40;59.81;95266.34;5067015;28;20111;-78
2023/01/26 02:38:10;;;;;;;8.52;4.75;;;;;;;0.40;59.75;95271.78;5065888;28;20482;-77
2023/01/26 02:40:47;;;;;;;7.90;4.50;;;;;;;0.42;59.98;95274.88;5066810;28;20138;-76
2023/01/26 02:43:13;;;;;;;7.25;4.13;;;;;;;0.42;59.70;95271.41;5064258;28;20032;-78
2023/01/26 02:45:39;;;;;;;7.78;3.88;;;;;;;0.40;60.04;95265.56;5066443;28;20024;-77
2023/01/26 02:48:06;;;;;;;7.75;4.53;;;;;;;0.40;60.04;95270.97;5064587;28;20025;-79
2023/01/26 02:50:32;;;;;;;6.18;4.35;;;;;;;0.38;60.19;95247.00;5066663;28;20556;-77
2023/01/26 02:52:58;;;;;;;9.73;4.70;;;;;;;0.35;60.14;95244.25;5070306;28;20024;-79
2023/01/26 02:55:25;;;;;;;6.88;4.50;;;;;;;0.44;60.30;95250.94;5066368;28;20041;-77
2023/01/26 02:57:52;;;;;;;7.40;4.25;;;;;;;0.48;59.90;95249.06;5065035;28;20483;-77
2023/01/26 03:00:21;;;;;;;5.97;3.88;;;;;;;0.42;59.84;95242.41;5064419;28;20036;-78
2023/01/26 03:02:47;;;;;;;6.18;4.25;;;;;;;0.30;60.14;95233.75;5066314;28;20491;-77
2023/01/26 03:05:13;;;;;;;6.93;4.30;;;;;;;0.23;60.11;95240.59;5064151;28;20029;-76
2023/01/26 03:07:38;;;;;;;4.95;3.63;;;;;;;0.14;60.69;95229.25;5065933;28;20032;-79
2023/01/26 03:10:04;;;;;;;7.07;4.03;;;;;;;0.19;60.90;95230.88;5066016;28;20036;-77
2023/01/26 03:12:30;;;;;;;7.72;4.82;;;;;;;0.12;60.93;95231.53;5065487;28;20055;-77
2023/01/26 03:17:40;;;;;;;7.22;4.50;;;;;;;0.11;60.76;95218.38;5065242;28;20064;-76
2023/01/26 03:28:21;;;;;;;6.43;4.03;;;;;;;-0.14;61.33;95201.75;5064334;28;19919;-78
2023/01/26 03:30:47;;;;;;;7.88;4.43;;;;;;;-0.12;61.49;95202.94;5065192;28;20472;-78
2023/01/26 03:33:13;;;;;;;6.43;3.47;;;;;;;-0.21;61.69;95193.53;5065377;28;20031;-78
2023/01/26 03:35:38;;;;;;;7.15;3.70;;;;;;;-0.23;61.51;95202.03;5065283;28;20427;-77
2023/01/26 03:38:03;;;;;;;6.07;3.78;;;;;;;-0.33;61.85;95200.69;5066457;28;20107;-77
2023/01/26 03:56:52;;;;;;;7.30;4.50;;;;;;;-0.21;61.72;95185.44;5064436;28;19968;-76
2023/01/26 03:59:36;;;;;;;6.00;4.03;;;;;;;-0.11;61.72;95190.25;5065374;28;20028;-77
2023/01/26 04:10:18;;;;;;;;;;;;;;;-0.13;62.14;95173.59;5065362;28;20059;-76
2023/01/26 04:12:44;;;;;;;6.40;4.05;;;;;;;-0.16;61.84;95175.09;5063489;28;19955;-78
2023/01/26 04:23:20;;;;;;;;;;;;;;;-0.16;62.14;95141.91;5064835;28;20093;-76
2023/01/26 04:25:47;;;;;;;5.47;3.25;;;;;;;-0.22;62.06;95140.66;5063444;28;19912;-77
2023/01/26 04:28:12;;;;;;;7.40;3.83;;;;;;;-0.22;62.15;95137.94;5062990;28;20028;-77
2023/01/26 04:30:38;;;;;;;7.55;4.72;;;;;;;-0.29;62.52;95142.09;5063155;28;20447;-77
2023/01/26 04:33:03;;;;;;;6.75;4.22;;;;;;;-0.20;62.51;95138.34;5064578;28;20029;-77
2023/01/26 04:35:29;;;;;;;6.68;4.07;;;;;;;-0.20;62.13;95143.75;5064498;28;20029;-76
2023/01/26 04:37:54;;;;;;;4.65;3.42;;;;;;;-0.25;62.06;95133.25;5063375;28;20555;-78
2023/01/26 04:40:20;;;;;;;7.15;3.97;;;;;;;-0.34;61.74;95137.00;5064053;28;20024;-76
2023/01/26 04:42:45;;;;;;;5.60;3.90;;;;;;;-0.41;61.99;95119.88;5069592;28;20116;-78
2023/01/26 04:45:11;;;;;;;9.63;6.50;;;;;;;-0.41;62.35;95147.66;5064988;28;20107;-78
2023/01/26 04:47:36;;;;;;;11.43;7.13;;;;;;;-0.40;62.47;95140.34;5063668;28;20028;-76
2023/01/26 04:50:02;;;;;;;12.00;7.78;;;;;;;-0.29;62.47;95141.28;5063093;28;20029;-78
2023/01/26 04:52:28;;;;;;;13.85;8.13;;;;;;;-0.24;62.19;95145.63;5063382;28;20111;-77
2023/01/26 04:54:53;;;;;;;14.52;8.10;;;;;;;-0.24;62.50;95140.22;5063443;28;20039;-76
2023/01/26 04:57:19;;;;;;;8.38;4.57;;;;;;;-0.28;61.51;95149.06;5064047;28;20068;-79
2023/01/26 04:59:45;;;;;;;6.25;4.53;;;;;;;-0.36;61.97;95139.25;5065131;28;20028;-78
2023/01/26 05:02:10;;;;;;;5.78;4.25;;;;;;;-0.39;62.33;95142.69;5064159;28;20597;-77
2023/01/26 05:04:36;;;;;;;7.13;4.88;;;;;;;-0.47;62.15;95142.94;5064278;28;20035;-75
2023/01/26 05:07:01;;;;;;;5.68;4.10;;;;;;;-0.51;62.32;95144.81;5064977;28;20103;-75
2023/01/26 05:09:27;;;;;;;6.45;3.83;;;;;;;-0.43;62.37;95141.84;5067481;28;20032;-77
2023/01/26 05:11:52;;;;;;;5.25;3.47;;;;;;;-0.47;62.14;95130.19;5068250;28;20021;-75
2023/01/26 05:14:17;;;;;;;5.68;4.10;;;;;;;-0.53;62.44;95137.06;5067422;28;20157;-76
2023/01/26 05:16:43;;;;;;;7.35;4.45;;;;;;;-0.53;62.81;95142.44;5067860;28;20028;-75
2023/01/26 05:19:08;;;;;;;5.90;3.70;;;;;;;-0.42;62.51;95137.22;5067260;28;20032;-78
2023/01/26 05:21:34;;;;;;;6.97;4.47;;;;;;;-0.33;62.29;95135.06;5066397;28;20031;-77
2023/01/26 05:23:59;;;;;;;9.88;5.78;;;;;;;-0.29;62.12;95139.41;5067753;28;20039;-76
2023/01/26 05:26:24;;;;;;;8.25;5.20;;;;;;;-0.20;61.51;95138.34;5067337;28;20032;-76
2023/01/26 05:28:50;;;;;;;8.82;5.68;;;;;;;-0.12;61.71;95140.00;5067461;28;20498;-76
2023/01/26 05:31:15;;;;;;;8.27;4.60;;;;;;;-0.13;61.47;95130.34;5067121;28;20029;-77
2023/01/26 05:33:41;;;;;;;6.32;4.38;;;;;;;-0.12;61.46;95142.72;5067639;28;20064;-76
2023/01/26 05:36:07;;;;;;;5.90;3.85;;;;;;;-0.18;61.74;95126.03;5066884;28;20025;-77
2023/01/26 05:38:33;;;;;;;6.38;4.05;;;;;;;-0.20;61.66;95130.25;5073092;28;20068;-77
2023/01/26 05:40:58;;;;;;;6.88;4.57;;;;;;;-0.11;61.68;95123.47;5067627;28;20024;-76
2023/01/26 05:43:24;;;;;;;5.65;3.97;;;;;;;-0.04;61.42;95126.25;5067502;28;20024;-76
2023/01/26 05:45:50;;;;;;;6.50;4.28;;;;;;;-0.01;61.07;95122.81;5067410;28;20403;-78
2023/01/26 05:48:15;;;;;;;5.82;4.07;;;;;;;0.03;61.18;95127.50;5067045;28;20510;-77
2023/01/26 05:50:41;;;;;;;7.13;4.30;;;;;;;-0.05;60.91;95126.63;5067709;28;20035;-77
2023/01/26 05:53:06;;;;;;;7.18;4.53;;;;;;;-0.06;61.22;95125.84;5066784;28;20025;-76
2023/01/26 05:55:31;;;;;;;6.13;3.78;;;;;;;0.01;60.98;95135.97;5067380;28;20063;-77
2023/01/26 05:57:57;;;;;;;6.50;4.22;;;;;;;0.03;60.82;95130.97;5065708;28;20403;-77
2023/01/26 06:00:23;;;;;;;7.63;4.28;;;;;;;0.06;60.56;95127.56;5067460;28;20486;-77
2023/01/26 06:02:48;;;;;;;7.93;4.50;;;;;;;0.13;60.68;95130.38;5067173;28;20221;-76
2023/01/26 06:05:14;;;;;;;9.10;4.78;;;;;;;0.06;60.75;95130.28;5067466;28;20116;-74
2023/01/26 06:07:39;;;;;;;10.13;4.95;;;;;;;0.17;60.65;95127.69;5067374;28;20154;-78
2023/01/26 06:10:05;;;;;;;8.38;5.53;;;;;;;0.16;61.37;95120.72;5067139;28;20119;-76
2023/01/26 06:12:34;;;;;;;7.50;5.43;;;;;;;0.22;60.51;95128.16;5049044;28;20029;-76
2023/01/26 06:15:00;;;;;;;9.77;5.78;;;;;;;0.18;60.51;95119.22;5066700;28;20125;-76
2023/01/26 06:17:26;;;;;;;9.73;5.63;;;;;;;0.20;61.20;95121.56;5065664;28;20056;-77
2023/01/26 06:19:51;;;;;;;9.23;5.30;;;;;;;0.29;60.73;95118.56;5066158;28;20028;-77
2023/01/26 06:22:17;;;;;;;9.15;5.47;;;;;;;0.28;60.54;95111.63;5067041;28;20064;-77
2023/01/26 06:24:42;;;;;;;9.32;5.35;;;;;;;0.38;60.24;95113.69;5066768;28;20415;-78
2023/01/26 06:27:11;;;;;;;9.43;6.35;;;;;;;0.37;60.11;95117.53;5066940;28;20173;-76
2023/01/26 06:29:36;;;;;;;9.85;5.38;;;;;;;0.39;60.24;95110.59;5065153;28;20024;-76
2023/01/26 06:32:02;;;;;;;11.10;5.90;;;;;;;0.43;60.03;95103.31;5067284;28;20020;-78
2023/01/26 06:34:27;;;;;;;12.85;5.63;;;;;;;0.43;60.54;95108.72;5069778;28;20024;-78
2023/01/26 06:36:53;;;;;;;11.07;5.40;;;;;;;0.50;60.01;95111.53;5066747;28;20039;-77
2023/01/26 06:39:18;;;;;;;8.82;5.78;;;;;;;0.54;59.84;95103.47;5066958;28;20097;-80
2023/01/26 06:41:44;;;;;;;9.30;6.15;;;;;;;0.59;59.48;95097.72;5066576;28;20160;-77
2023/01/26 06:44:10;;;;;;;10.10;6.03;;;;;;;0.59;59.49;95099.66;5066659;28;20028;-78
2023/01/26 06:46:36;;;;;;;9.88;5.82;;;;;;;0.56;59.44;95098.44;5066413;28;20028;-74
2023/01/26 06:49:02;;;;;;;11.57;6.05;;;;;;;0.55;59.62;95107.72;5048089;28;20530;-77
2023/01/26 06:51:40;;;;;;;9.13;5.75;;;;;;;0.50;59.50;95097.22;5066296;28;20070;-79
2023/01/26 06:54:09;;;;;;;10.30;6.65;;;;;;;0.39;60.05;95105.19;5066172;28;20474;-78
2023/01/26 06:56:34;;;;;;;11.77;6.43;;;;;;;0.29;60.33;95092.34;5066774;28;20033;-78
2023/01/26 06:59:00;;;;;;;14.93;6.97;;;;;;;0.36;60.23;95088.94;5066187;28;20035;-77
2023/01/26 07:01:25;;;;;;;10.57;6.63;;;;;;;0.37;60.62;95083.16;5065307;28;20028;-78
2023/01/26 07:03:52;;;;;;;11.48;6.75;;;;;;;0.35;60.67;95087.38;5064130;28;20041;-77
2023/01/26 07:06:18;;;;;;;12.15;6.78;;;;;;;0.40;60.47;95084.34;5065517;28;20418;-76
2023/01/26 07:08:43;;;;;;;12.57;7.80;;;;;;;0.39;60.67;95085.50;5065747;28;20096;-78
2023/01/26 07:11:10;;;;;;;12.82;7.93;;;;;;;0.46;60.40;95080.16;5065157;28;20499;-77
2023/01/26 07:13:35;;;;;;;13.23;7.75;;;;;;;0.40;60.57;95078.94;5066389;28;20122;-77
2023/01/26 07:16:05;;;;;;;13.15;7.65;;;;;;;0.21;60.91;95077.16;5065476;28;20059;-80
2023/01/26 07:18:31;;;;;;;15.45;7.20;;;;;;;0.16;61.16;95085.59;5065422;28;20536;-78
2023/01/26 07:21:12;;;;;;;11.27;5.45;;;;;;;0.16;61.09;95088.28;5065572;28;20112;-78
2023/01/26 07:23:37;;;;;;;10.07;5.47;;;;;;;0.08;61.26;95076.59;5047837;28;20102;-79
2023/01/26 07:26:03;;;;;;;10.85;6.03;;;;;;;0.02;61.68;95072.66;5065499;28;20468;-78
2023/01/26 07:28:33;;;;;;;7.35;4.93;;;;;;;0.21;61.00;95071.75;5068362;28;20044;-78
2023/01/26 07:31:02;;;;;;;11.27;6.57;;;;;;;0.29;60.85;95067.19;5065416;28;20025;-78
2023/01/26 07:33:29;;;;;;;10.40;6.55;;;;;;;0.29;61.03;95064.50;5065411;28;20074;-77
2023/01/26 07:35:55;;;;;;;10.68;6.13;;;;;;;0.36;61.21;95070.78;5064481;28;20037;-77
2023/01/26 07:38:21;;;;;;;8.77;5.55;;;;;;;0.32;60.55;95075.38;5063336;28;20032;-76
2023/01/26 07:40:46;;;;;;;10.38;5.80;;;;;;;0.36;60.74;95073.50;5064160;28;20047;-77
2023/01/26 07:43:12;;;;;;;10.35;6.35;;;;;;;0.44;60.78;95071.66;5065013;28;20089;-76
2023/01/26 07:45:38;;;;;;;12.75;6.25;;;;;;;0.54;60.89;95071.00;5065138;28;20039;-78
2023/01/26 07:48:03;;;;;;;11.68;6.93;;;;;;;0.71;60.62;95069.66;5065482;28;20021;-78
2023/01/26 07:50:29;;;;;;;10.38;6.88;;;;;;;0.81;60.58;95073.63;5064419;28;20393;-79
2023/01/26 07:52:54;;;;;;;11.35;6.00;;;;;;;0.79;60.36;95066.63;5065563;28;20028;-78
2023/01/26 07:55:20;;;;;;;14.02;6.20;;;;;;;0.65;60.77;95071.13;5064250;28;20036;-78
2023/01/26 07:57:48;;;;;;;13.15;7.47;;;;;;;0.74;61.09;95077.78;5065118;28;20538;-77
2023/01/26 08:00:15;;;;;;;9.90;5.82;;;;;;;0.82;60.54;95075.19;5064671;28;20035;-77
2023/01/26 08:02:41;;;;;;;12.68;7.70;;;;;;;0.79;60.76;95074.75;5065331;28;20040;-77
2023/01/26 08:05:07;;;;;;;12.23;7.35;;;;;;;0.99;61.07;95075.34;5065193;28;20024;-78
2023/01/26 08:07:32;;;;;;;15.82;7.32;;;;;;;1.13;60.58;95060.38;5064016;28;20036;-78
2023/01/26 08:09:58;;;;;;;13.90;7.90;;;;;;;1.22;60.39;95058.94;5065484;28;20086;-78
2023/01/26 08:12:24;;;;;;;14.70;8.82;;;;;;;1.22;60.59;95055.44;5064129;28;20379;-78
2023/01/26 08:14:49;;;;;;;14.57;8.68;;;;;;;1.34;59.90;95063.28;5063814;28;20020;-79
2023/01/26 08:17:16;;;;;;;13.40;7.82;;;;;;;1.22;59.72;95058.94;5062639;28;20137;-79
2023/01/26 08:19:42;;;;;;;14.18;8.20;;;;;;;1.25;59.72;95050.06;5063306;28;20089;-77
2023/01/26 08:22:07;;;;;;;13.30;7.80;;;;;;;1.32;59.43;95043.94;5063219;28;20481;-78
2023/01/26 08:24:33;;;;;;;9.00;5.07;;;;;;;1.34;57.89;95057.88;5069163;28;20105;-78
2023/01/26 08:26:58;;;;;;;9.32;5.63;;;;;;;1.22;58.01;95041.91;5065784;28;20033;-79
2023/01/26 08:29:23;;;;;;;10.45;6.43;;;;;;;1.11;58.84;95043.75;5064750;28;20126;-79
2023/01/26 08:31:49;;;;;;;12.18;6.80;;;;;;;1.25;58.66;95039.22;5063804;28;20522;-77
2023/01/26 08:34:14;;;;;;;7.82;5.10;;;;;;;1.24;57.68;95032.25;5065689;28;20028;-79
2023/01/26 08:36:39;;;;;;;7.57;5.20;;;;;;;1.30;57.55;95032.69;5066046;28;20040;-78
2023/01/26 08:39:05;;;;;;;8.20;5.45;;;;;;;1.21;57.63;95032.25;5064850;28;20020;-78
2023/01/26 08:41:31;;;;;;;7.63;4.45;;;;;;;1.15;57.44;95023.69;5065297;28;20032;-79
2023/01/26 08:43:58;;;;;;;8.10;4.95;;;;;;;1.18;57.61;95020.22;5067700;28;20091;-78
2023/01/26 08:46:26;;;;;;;7.00;4.90;;;;;;;1.18;57.00;95022.91;5068259;28;20101;-78
2023/01/26 08:48:52;;;;;;;7.63;4.97;;;;;;;1.21;57.27;95022.19;5069111;28;20391;-78
2023/01/26 08:51:17;;;;;;;6.32;3.67;;;;;;;1.09;56.82;95027.06;5067773;28;20032;-78
2023/01/26 08:53:43;;;;;;;5.45;3.70;;;;;;;1.03;57.42;95040.19;5069327;28;20024;-77
2023/01/26 08:56:11;;;;;;;5.72;3.25;;;;;;;0.92;57.49;95047.41;5068372;28;20396;-78
2023/01/26 08:58:36;;;;;;;7.22;3.75;;;;;;;0.77;57.90;95052.69;5068616;28;20033;-79
2023/01/26 09:01:07;;;;;;;7.22;4.63;;;;;;;0.70;58.35;95036.41;5067300;28;20510;-77
2023/01/26 09:03:32;;;;;;;4.97;3.53;;;;;;;0.74;57.71;95018.25;5066577;28;20037;-78
2023/01/26 09:05:59;;;;;;;9.85;5.18;;;;;;;0.82;57.91;95032.66;5068746;28;20491;-77
2023/01/26 09:08:25;;;;;;;9.35;4.72;;;;;;;0.88;57.60;95030.38;5068413;28;20039;-78
2023/01/26 09:10:50;;;;;;;6.07;4.20;;;;;;;1.00;57.10;95038.22;5068772;28;20032;-78
2023/01/26 09:13:16;;;;;;;5.38;3.58;;;;;;;1.01;56.90;95032.44;5067635;28;20034;-79
2023/01/26 09:15:41;;;;;;;6.38;3.50;;;;;;;1.04;56.91;95030.94;5068476;28;20028;-80
2023/01/26 09:18:07;;;;;;;5.82;3.63;;;;;;;1.10;56.80;95026.72;5066444;28;20483;-78
2023/01/26 09:20:32;;;;;;;5.40;3.83;;;;;;;1.06;56.60;95025.91;5071500;28;20025;-77
2023/01/26 09:22:57;;;;;;;5.88;3.38;;;;;;;1.04;56.56;95020.09;5067297;28;20113;-79
2023/01/26 09:25:23;;;;;;;5.03;3.35;;;;;;;0.98;56.50;95018.88;5067757;28;20032;-78
2023/01/26 09:27:48;;;;;;;6.15;3.58;;;;;;;1.04;56.89;95018.16;5068729;28;20483;-77
2023/01/26 09:30:14;;;;;;;4.65;3.00;;;;;;;1.25;56.43;95003.22;5067093;28;20029;-76
2023/01/26 09:32:39;;;;;;;3.70;2.65;;;;;;;1.23;55.79;95002.84;5068742;28;20457;-79
2023/01/26 09:35:10;;;;;;;4.50;3.30;;;;;;;1.07;56.22;94992.25;5067476;28;20094;-78
2023/01/26 09:37:35;;;;;;;3.70;2.58;;;;;;;0.96;56.65;94985.97;5067356;28;20082;-77
2023/01/26 09:40:01;;;;;;;4.88;3.30;;;;;;;0.90;57.04;94990.94;5066497;28;20040;-77
2023/01/26 09:42:53;;;;;;;4.55;3.22;;;;;;;0.99;57.03;94985.25;5066621;28;20032;-79
2023/01/26 09:45:30;;;;;;;5.18;3.13;;;;;;;1.13;56.69;94993.47;5049741;28;20132;-79
2023/01/26 09:48:31;;;;;;;3.95;2.55;;;;;;;1.27;56.33;94998.25;5066747;28;20573;-78
2023/01/26 09:51:06;;;;;;;4.75;3.15;;;;;;;1.23;56.36;94992.00;5064860;28;20108;-77
2023/01/26 09:53:53;;;;;;;4.13;2.83;;;;;;;1.23;56.23;94987.38;5065174;28;20020;-78
2023/01/26 09:56:20;;;;;;;3.92;2.88;;;;;;;1.17;56.46;94979.97;5066356;28;20029;-77
2023/01/26 09:58:50;;;;;;;3.35;2.65;;;;;;;1.17;56.76;94985.38;5066057;28;20372;-78
2023/01/26 10:01:23;;;;;;;5.55;3.35;;;;;;;1.04;56.89;94980.25;5065234;28;20040;-76
2023/01/26 10:04:00;;;;;;;2.90;2.15;;;;;;;0.97;57.33;94972.06;5065516;28;20025;-79
2023/01/26 10:06:28;;;;;;;3.28;2.17;;;;;;;0.86;57.46;94987.47;5066150;28;20443;-77
2023/01/26 10:08:55;;;;;;;4.28;2.97;;;;;;;0.81;57.71;94971.56;5066090;28;20036;-77
2023/01/26 10:11:23;;;;;;;3.28;2.05;;;;;;;0.76;57.95;94969.97;5065977;28;20040;-79
2023/01/26 10:13:59;;;;;;;3.40;2.25;;;;;;;0.88;57.76;94976.25;5067467;28;20031;-77
2023/01/26 10:16:25;;;;;;;6.20;2.90;;;;;;;0.69;57.88;94945.53;5069992;28;20542;-79
2023/01/26 10:18:58;;;;;;;4.68;3.00;;;;;;;0.85;57.92;94952.63;5066910;28;20048;-77
2023/01/26 10:21:24;;;;;;;;;;;;;;;0.95;57.39;94951.94;5066626;28;20032;-78
2023/01/26 10:23:51;;;;;;;2.92;2.17;;;;;;;0.93;57.55;94927.97;5066146;28;19920;-78
2023/01/26 10:26:21;;;;;;;3.67;2.47;;;;;;;1.00;57.36;94925.31;5065715;28;20029;-79
2023/01/26 10:28:49;;;;;;;4.80;2.50;;;;;;;0.99;57.52;94914.84;5067247;28;20033;-78
2023/01/26 10:31:17;;;;;;;5.10;2.80;;;;;;;1.15;57.49;94914.56;5064533;28;20024;-79
2023/01/26 10:33:48;;;;;;;4.22;2.40;;;;;;;1.16;56.96;94900.66;5065381;28;20021;-79
2023/01/26 10:36:14;;;;;;;4.22;2.55;;;;;;;1.29;56.74;94903.84;5066845;28;20104;-78
2023/01/26 10:38:41;;;;;;;3.88;2.53;;;;;;;1.37;56.40;94897.28;5065689;28;20115;-78
2023/01/26 10:41:21;;;;;;;4.43;2.80;;;;;;;1.26;56.58;94872.06;5066978;28;20451;-79
2023/01/26 10:43:58;;;;;;;4.88;2.58;;;;;;;1.28;56.87;94875.97;5065843;28;20119;-77
2023/01/26 10:46:28;;;;;;;3.88;2.88;;;;;;;1.37;56.42;94874.84;5066227;28;20419;-77
2023/01/26 10:48:56;;;;;;;4.70;2.97;;;;;;;1.31;56.69;94869.78;5065863;28;20566;-77
2023/01/26 10:51:30;;;;;;;5.13;3.65;;;;;;;1.44;56.39;94856.72;5064120;28;20031;-77
2023/01/26 10:54:18;;;;;;;4.25;2.83;;;;;;;1.42;56.16;94859.00;5065321;28;20032;-78
2023/01/26 10:56:54;;;;;;;6.38;2.78;;;;;;;1.44;56.30;94854.00;5065693;28;20195;-75
2023/01/26 10:59:25;;;;;;;4.93;3.03;;;;;;;1.71;58.36;94853.72;5064853;28;20136;-76
2023/01/26 11:01:53;;;;;;;3.88;2.63;;;;;;;1.89;56.30;94838.28;5068428;28;20066;-77
2023/01/26 11:04:18;;;;;;;3.78;2.45;;;;;;;1.84;55.25;94828.59;5066056;28;20028;-75
2023/01/26 11:06:44;;;;;;;4.55;2.55;;;;;;;1.76;55.46;94824.31;5067060;28;20085;-77
2023/01/26 11:09:26;;;;;;;3.45;2.50;;;;;;;1.90;55.55;94823.59;5065818;28;20033;-77
2023/01/26 11:11:59;;;;;;;3.42;2.47;;;;;;;1.92;54.96;94810.41;5072046;28;20414;-78
2023/01/26 11:14:25;;;;;;;3.75;2.47;;;;;;;1.89;55.04;94802.25;5065280;28;20125;-78
2023/01/26 11:17:00;;;;;;;4.32;3.05;;;;;;;1.84;55.13;94804.22;5064681;28;20040;-78
2023/01/26 11:19:38;;;;;;;3.35;2.50;;;;;;;1.91;54.96;94810.81;5065428;28;20037;-78
2023/01/26 11:22:16;;;;;;;3.58;2.40;;;;;;;1.94;54.99;94802.66;5063681;28;20037;-77
2023/01/26 11:24:50;;;;;;;4.80;3.03;;;;;;;2.02;54.92;94787.97;5066226;28;20124;-77
2023/01/26 11:27:40;;;;;;;4.13;2.70;;;;;;;2.11;54.81;94787.59;5063890;28;20076;-78
2023/01/26 11:30:08;;;;;;;6.00;3.47;;;;;;;2.16;54.47;94773.66;5065787;28;20503;-78
2023/01/26 11:32:37;;;;;;;4.75;3.08;;;;;;;2.25;54.17;94776.00;5065732;28;20494;-77
2023/01/26 11:35:31;;;;;;;4.95;3.30;;;;;;;2.33;54.12;94780.25;5064896;28;20112;-79
2023/01/26 11:38:20;;;;;;;;;;;;;;;2.32;54.32;94779.47;5066682;28;20442;-77
2023/01/26 11:41:04;;;;;;;5.93;3.03;;;;;;;2.48;54.17;94767.47;5063969;28;19916;-79
2023/01/26 11:43:31;;;;;;;;;;;;;;;2.56;53.80;94769.78;5065278;28;20028;-77
2023/01/26 11:46:39;;;;;;;7.57;3.13;;;;;;;2.55;53.78;94765.50;5065917;28;20014;-77
2023/01/26 11:49:33;;;;;;;4.72;2.92;;;;;;;2.58;54.03;94753.09;5064601;28;20029;-78
2023/01/26 11:52:04;;;;;;;3.78;2.78;;;;;;;2.54;53.86;94753.09;5064701;28;20506;-77
2023/01/26 11:55:06;;;;;;;4.28;3.20;;;;;;;2.44;53.92;94764.75;5065719;28;20319;-78
2023/01/26 11:57:45;;;;;;;5.03;2.88;;;;;;;2.28;54.46;94767.06;5064207;28;20025;-77
2023/01/26 12:00:20;;;;;;;3.38;2.65;;;;;;;2.26;54.84;94762.03;5063539;28;20032;-79
2023/01/26 12:02:53;;;;;;;4.30;3.25;;;;;;;2.24;55.08;94756.22;5063799;28;20055;-77
2023/01/26 12:05:25;;;;;;;6.25;3.53;;;;;;;2.31;55.02;94745.38;5047326;28;20024;-78
2023/01/26 12:07:55;;;;;;;4.30;3.50;;;;;;;2.32;55.15;94738.78;5067639;28;20066;-79
2023/01/26 12:10:27;;;;;;;4.93;3.63;;;;;;;2.40;54.93;94736.81;5062692;28;20024;-78
2023/01/26 12:13:03;;;;;;;5.10;3.63;;;;;;;2.40;54.88;94725.97;5063898;28;20031;-79
2023/01/26 12:15:33;;;;;;;6.97;4.03;;;;;;;2.37;55.09;94726.75;5064793;28;20121;-78
2023/01/26 12:18:05;;;;;;;6.38;4.25;;;;;;;2.49;54.92;94714.75;5061917;28;20567;-77
2023/01/26 12:20:34;;;;;;;5.50;3.90;;;;;;;2.46;55.13;94713.56;5063471;28;20032;-78
2023/01/26 12:23:05;;;;;;;7.50;3.92;;;;;;;2.49;54.77;94706.59;5064330;28;20144;-77
2023/01/26 12:25:33;;;;;;;4.85;3.70;;;;;;;2.48;55.01;94705.81;5047388;28;20151;-79
2023/01/26 12:28:23;;;;;;;6.82;4.70;;;;;;;2.49;55.41;94695.75;5063086;28;20021;-77
2023/01/26 12:31:03;;;;;;;5.70;4.20;;;;;;;2.58;55.03;94701.53;5064120;28;20036;-77